createdAt,value
2018-07-24T00:01:01.540Z,4.50
2018-07-24T00:06:06.135Z,4.67
2018-07-24T00:11:10.659Z,4.70
2018-07-24T00:16:14.883Z,4.93
2018-07-24T00:21:20.059Z,4.53
2018-07-24T00:26:24.576Z,5.07
2018-07-24T00:31:29.043Z,5.23
2018-07-24T00:36:34.787Z,5.23
2018-07-24T00:41:40.273Z,5.40
2018-07-24T00:46:44.658Z,5.40
2018-07-24T00:51:49.135Z,5.33
2018-07-24T00:56:53.600Z,4.70
2018-07-24T01:01:58.206Z,5.10
2018-07-24T01:07:04.263Z,5.47
2018-07-24T01:12:08.978Z,5.03
2018-07-24T01:17:13.541Z,5.90
2018-07-24T01:22:18.155Z,5.70
2018-07-24T01:27:22.647Z,4.80
2018-07-24T01:32:27.164Z,5.63
2018-07-24T01:37:32.046Z,6.10
2018-07-24T01:42:36.716Z,6.30
2018-07-24T01:47:41.408Z,6.20
2018-07-24T01:52:45.696Z,5.80
2018-07-24T01:57:50.297Z,6.60
2018-07-24T02:02:54.443Z,6.33
2018-07-24T02:07:58.909Z,6.00
2018-07-24T02:13:04.437Z,6.00
2018-07-24T02:18:09.189Z,5.83
2018-07-24T02:23:13.736Z,5.97
2018-07-24T02:28:18.317Z,5.90
2018-07-24T02:33:22.506Z,6.33
2018-07-24T02:38:26.631Z,6.10
2018-07-24T02:43:30.865Z,6.27
2018-07-24T02:48:35.863Z,7.20
2018-07-24T02:53:40.133Z,6.83
2018-07-24T02:58:44.072Z,7.37
2018-07-24T03:03:48.502Z,7.70
2018-07-24T03:08:52.951Z,7.20
2018-07-24T03:13:57.755Z,7.17
2018-07-24T03:19:03.033Z,7.30
2018-07-24T03:24:07.943Z,7.53
2018-07-24T03:29:12.462Z,8.10
2018-07-24T03:34:16.762Z,7.77
2018-07-24T03:39:21.265Z,8.53
2018-07-24T03:44:25.751Z,8.33
2018-07-24T03:49:31.919Z,8.63
2018-07-24T03:54:36.822Z,8.17
2018-07-24T03:59:41.706Z,9.33
2018-07-24T04:04:46.311Z,8.80
2018-07-24T04:09:50.440Z,8.80
2018-07-24T04:14:54.999Z,8.30
2018-07-24T04:19:59.408Z,8.97
2018-07-24T04:25:05.428Z,8.97
2018-07-24T04:30:10.350Z,9.17
2018-07-24T04:35:14.778Z,8.27
2018-07-24T04:40:19.623Z,7.93
2018-07-24T04:45:24.052Z,8.13
2018-07-24T04:50:28.193Z,7.43
2018-07-24T04:55:33.873Z,8.00
2018-07-24T05:00:38.232Z,8.10
2018-07-24T05:05:42.496Z,7.73
2018-07-24T05:10:47.164Z,7.87
2018-07-24T05:15:51.884Z,31.40
2018-07-24T05:20:56.560Z,19.07
2018-07-24T05:26:02.006Z,13.97
2018-07-24T05:31:06.856Z,33.37
2018-07-24T05:36:11.506Z,35.00
2018-07-24T05:41:16.136Z,11.47
2018-07-24T05:46:20.553Z,10.67
2018-07-24T05:51:24.790Z,7.07
2018-07-24T05:56:29.231Z,6.63
2018-07-24T06:01:34.829Z,24.00
2018-07-24T06:06:39.734Z,26.83
2018-07-24T06:11:43.947Z,11.47
2018-07-24T06:16:48.440Z,11.03
2018-07-24T06:21:52.598Z,7.23
2018-07-24T06:26:57.878Z,7.60
2018-07-24T06:32:03.339Z,8.07
2018-07-24T06:37:08.455Z,7.27
2018-07-24T06:42:13.217Z,8.97
2018-07-24T06:47:17.641Z,8.60
2018-07-24T06:52:25.683Z,10.67
2018-07-24T06:57:29.852Z,10.93
2018-07-24T07:02:35.821Z,10.00
2018-07-24T07:07:41.430Z,9.43
2018-07-24T07:12:45.673Z,9.23
2018-07-24T07:17:50.197Z,9.97
2018-07-24T07:22:54.367Z,9.50
2018-07-24T07:27:58.687Z,9.10
2018-07-24T07:33:04.274Z,7.10
2018-07-24T07:38:08.923Z,9.30
2018-07-24T07:43:13.126Z,8.00
2018-07-24T07:48:17.281Z,8.17
2018-07-24T07:53:21.789Z,8.47
2018-07-24T07:58:26.082Z,8.47
2018-07-24T08:03:31.485Z,8.83
2018-07-24T08:08:36.423Z,7.90
2018-07-24T08:13:43.394Z,7.87
2018-07-24T08:18:47.915Z,7.10
2018-07-24T08:23:52.507Z,6.60
2018-07-24T08:28:57.099Z,6.87
2018-07-24T08:34:02.068Z,7.10
2018-07-24T08:39:09.318Z,6.33
2018-07-24T08:44:14.141Z,5.13
2018-07-24T08:49:18.378Z,7.17
2018-07-24T08:54:22.748Z,6.20
2018-07-24T08:59:26.725Z,6.03
2018-07-24T09:04:32.438Z,6.03
2018-07-24T09:09:37.439Z,5.87
2018-07-24T09:14:42.672Z,6.80
2018-07-24T09:19:47.630Z,5.73
2018-07-24T09:24:51.818Z,5.60
2018-07-24T09:29:56.477Z,6.27
2018-07-24T09:35:01.557Z,6.30
2018-07-24T09:40:07.766Z,5.83
2018-07-24T09:45:13.099Z,4.90
2018-07-24T09:50:25.312Z,5.50
2018-07-24T09:55:29.791Z,5.70
2018-07-24T10:00:40.257Z,5.93
2018-07-24T10:05:45.298Z,5.40
2018-07-24T10:10:50.270Z,5.93
2018-07-24T10:15:54.481Z,6.87
2018-07-24T10:21:05.961Z,8.67
2018-07-24T10:26:10.710Z,8.33
2018-07-24T10:31:15.541Z,7.60
2018-07-24T10:36:19.917Z,9.80
2018-07-24T10:41:24.299Z,8.20
2018-07-24T10:46:28.763Z,11.43
2018-07-24T10:51:33.975Z,8.93
2018-07-24T10:56:38.797Z,7.13
2018-07-24T11:01:43.879Z,7.83
2018-07-24T11:06:48.353Z,6.53
2018-07-24T11:11:52.825Z,6.60
2018-07-24T11:16:57.006Z,4.40
2018-07-24T11:22:02.504Z,3.87
2018-07-24T11:27:07.249Z,3.73
2018-07-24T11:32:12.025Z,4.33
2018-07-24T11:37:16.144Z,4.70
2018-07-24T11:42:20.332Z,4.50
2018-07-24T11:47:24.588Z,5.07
2018-07-24T11:52:28.841Z,5.17
2018-07-24T11:57:34.958Z,4.47
2018-07-24T12:02:39.814Z,3.97
2018-07-24T12:07:44.257Z,4.20
2018-07-24T12:12:48.715Z,3.70
2018-07-24T12:17:53.213Z,3.73
2018-07-24T12:22:57.736Z,4.23
2018-07-24T12:28:03.454Z,4.00
2018-07-24T12:33:08.371Z,3.80
2018-07-24T12:38:13.273Z,4.17
2018-07-24T12:43:17.361Z,3.90
2018-07-24T12:48:22.065Z,4.03
2018-07-24T12:53:26.557Z,3.67
2018-07-24T12:58:31.403Z,3.90
2018-07-24T13:03:36.080Z,3.83
2018-07-24T13:08:40.452Z,3.93
2018-07-24T13:13:45.107Z,4.17
2018-07-24T13:18:49.989Z,3.70
2018-07-24T13:23:54.465Z,4.07
2018-07-24T13:28:59.378Z,4.17
2018-07-24T13:34:04.915Z,3.80
2018-07-24T13:39:11.189Z,4.30
2018-07-24T13:44:15.445Z,4.03
2018-07-24T13:49:19.565Z,3.87
2018-07-24T13:54:24.011Z,3.63
2018-07-24T13:59:28.529Z,3.90
2018-07-24T14:04:34.501Z,3.83
2018-07-24T14:09:39.185Z,3.57
2018-07-24T14:14:43.369Z,3.87
2018-07-24T14:19:47.820Z,3.70
2018-07-24T14:24:51.962Z,3.50
2018-07-24T14:29:56.697Z,3.20
2018-07-24T14:35:00.912Z,3.50
2018-07-24T14:40:05.882Z,3.40
2018-07-24T14:50:09.652Z,3.30
2018-07-24T14:55:13.766Z,3.00
2018-07-24T15:00:18.205Z,3.37
2018-07-24T15:05:22.451Z,3.10
2018-07-24T15:10:26.829Z,2.80
2018-07-24T15:15:32.888Z,2.60
2018-07-24T15:20:37.225Z,2.50
2018-07-24T15:25:41.765Z,2.90
2018-07-24T15:30:45.879Z,2.60
2018-07-24T15:35:50.283Z,2.80
2018-07-24T15:40:54.449Z,2.67
2018-07-24T15:45:58.944Z,2.70
2018-07-24T15:51:05.056Z,2.50
2018-07-24T15:56:09.940Z,2.37
2018-07-24T16:01:14.272Z,2.70
2018-07-24T16:06:18.397Z,2.90
2018-07-24T16:11:23.616Z,2.50
2018-07-24T16:16:28.905Z,2.87
2018-07-24T16:21:34.674Z,2.30
2018-07-24T16:26:39.700Z,2.67
2018-07-24T16:31:44.387Z,2.17
2018-07-24T16:36:48.398Z,3.03
2018-07-24T16:41:52.621Z,2.90
2018-07-24T16:46:57.002Z,2.50
2018-07-24T16:52:03.158Z,2.47
2018-07-24T16:57:09.452Z,4.83
2018-07-24T17:02:14.265Z,2.70
2018-07-24T17:07:18.514Z,2.70
